createdAt,value
2023-04-27T00:01:38.355Z,99067.22
2023-04-27T00:04:06.896Z,99080.88
2023-04-27T00:06:34.636Z,99075.31
2023-04-27T00:09:01.162Z,99082.00
2023-04-27T00:11:28.993Z,99077.22
2023-04-27T00:13:56.238Z,99080.53
2023-04-27T00:16:22.888Z,99070.81
2023-04-27T00:18:49.618Z,99063.34
2023-04-27T00:21:16.294Z,99065.72
2023-04-27T00:23:42.913Z,99060.91
2023-04-27T00:26:09.351Z,99078.75
2023-04-27T00:28:35.860Z,99072.88
2023-04-27T00:31:03.724Z,99060.50
2023-04-27T00:33:30.509Z,99046.03
2023-04-27T00:36:01.296Z,99038.50
2023-04-27T00:38:28.344Z,99025.47
2023-04-27T00:41:04.546Z,99008.59
2023-04-27T00:43:32.285Z,98984.41
2023-04-27T00:45:59.490Z,98990.81
2023-04-27T00:48:26.606Z,98995.28
2023-04-27T00:50:53.524Z,98998.72
2023-04-27T00:53:22.647Z,98995.25
2023-04-27T00:55:49.391Z,99006.78
2023-04-27T00:58:15.852Z,98999.53
2023-04-27T01:00:42.634Z,98998.44
2023-04-27T01:03:09.883Z,98989.66
2023-04-27T01:05:37.584Z,98987.50
2023-04-27T01:08:05.041Z,98990.53
2023-04-27T01:10:31.554Z,98982.25
2023-04-27T01:12:58.644Z,98976.91
2023-04-27T01:15:25.478Z,98980.50
2023-04-27T01:18:02.009Z,98996.69
2023-04-27T01:20:32.570Z,98955.94
2023-04-27T01:22:59.717Z,98999.47
2023-04-27T01:25:29.287Z,98994.34
2023-04-27T01:27:56.083Z,99013.94
2023-04-27T01:30:22.993Z,99017.72
2023-04-27T01:32:50.086Z,99023.38
2023-04-27T01:35:16.872Z,99024.22
2023-04-27T01:37:43.713Z,99029.47
2023-04-27T01:40:10.610Z,99048.16
2023-04-27T01:42:37.060Z,99055.41
2023-04-27T01:45:04.285Z,99060.66
2023-04-27T01:47:30.932Z,99067.63
2023-04-27T01:49:57.533Z,99075.88
2023-04-27T01:52:24.005Z,99043.34
2023-04-27T01:54:50.603Z,99098.94
2023-04-27T01:57:17.747Z,99097.06
2023-04-27T01:59:44.267Z,99082.00
2023-04-27T02:02:11.631Z,99062.44
2023-04-27T02:04:38.471Z,99051.94
2023-04-27T02:07:05.236Z,99043.09
2023-04-27T02:09:31.835Z,99045.00
2023-04-27T02:11:58.324Z,99025.09
2023-04-27T02:14:24.759Z,99024.25
2023-04-27T02:16:51.312Z,99003.28
2023-04-27T02:19:18.113Z,99003.47
2023-04-27T02:21:44.675Z,99016.03
2023-04-27T02:24:11.294Z,99030.50
2023-04-27T02:26:38.680Z,99039.50
2023-04-27T02:29:05.191Z,99037.81
2023-04-27T02:31:32.232Z,99036.66
2023-04-27T02:33:58.758Z,99049.34
2023-04-27T02:36:25.304Z,99064.00
2023-04-27T02:38:52.030Z,99063.34
2023-04-27T02:41:19.184Z,99077.81
2023-04-27T02:43:46.968Z,99089.78
2023-04-27T02:46:14.202Z,99110.09
2023-04-27T02:48:40.693Z,99099.50
2023-04-27T02:51:07.226Z,99093.16
2023-04-27T02:53:33.886Z,99087.56
2023-04-27T02:56:00.762Z,99082.16
2023-04-27T02:58:27.216Z,99066.06
2023-04-27T03:00:57.564Z,99064.00
2023-04-27T03:03:24.281Z,99059.53
2023-04-27T03:05:51.069Z,99055.22
2023-04-27T03:08:21.718Z,99076.00
2023-04-27T03:10:48.266Z,99087.41
2023-04-27T03:13:15.357Z,99087.91
2023-04-27T03:15:41.831Z,99095.41
2023-04-27T03:18:08.306Z,99092.09
2023-04-27T03:20:34.849Z,99088.00
2023-04-27T03:23:01.450Z,99080.56
2023-04-27T03:25:28.291Z,99067.81
2023-04-27T03:27:54.748Z,99072.63
2023-04-27T03:30:21.418Z,99072.72
2023-04-27T03:32:48.008Z,99083.75
2023-04-27T03:35:14.758Z,99094.91
2023-04-27T03:37:43.382Z,99097.44
2023-04-27T03:40:10.152Z,99085.97
2023-04-27T03:42:36.974Z,99074.38
2023-04-27T03:45:03.914Z,99083.13
2023-04-27T03:47:31.300Z,99068.53
2023-04-27T03:49:57.752Z,99044.44
2023-04-27T03:52:24.300Z,99048.41
2023-04-27T03:54:50.853Z,99042.72
2023-04-27T03:57:17.391Z,99047.75
2023-04-27T03:59:43.851Z,99041.25
2023-04-27T04:02:11.809Z,99034.22
2023-04-27T04:04:38.898Z,99042.28
2023-04-27T04:07:06.086Z,99036.69
2023-04-27T04:09:32.697Z,99058.44
2023-04-27T04:11:59.077Z,99056.38
2023-04-27T04:14:25.672Z,99057.56
2023-04-27T04:16:52.477Z,99032.91
2023-04-27T04:19:20.694Z,99025.78
2023-04-27T04:21:48.404Z,99024.88
2023-04-27T04:24:16.119Z,99026.84
2023-04-27T04:26:43.644Z,99024.38
2023-04-27T04:29:11.133Z,99024.13
2023-04-27T04:31:38.470Z,99035.66
2023-04-27T04:34:05.044Z,99045.06
2023-04-27T04:36:32.093Z,99042.34
2023-04-27T04:38:59.106Z,99033.56
2023-04-27T04:41:25.806Z,99038.28
2023-04-27T04:43:52.713Z,99042.44
2023-04-27T04:46:20.177Z,99024.09
2023-04-27T04:48:47.097Z,99008.47
2023-04-27T04:51:13.625Z,98985.47
2023-04-27T04:53:43.591Z,98978.75
2023-04-27T04:56:11.340Z,98973.94
2023-04-27T04:58:37.952Z,98970.38
2023-04-27T05:01:04.556Z,98966.22
2023-04-27T05:03:31.250Z,98991.38
2023-04-27T05:05:57.936Z,99001.44
2023-04-27T05:08:24.389Z,99009.81
2023-04-27T05:10:53.798Z,98995.75
2023-04-27T05:13:20.874Z,99015.94
2023-04-27T05:15:47.501Z,99044.03
2023-04-27T05:18:13.970Z,99060.69
2023-04-27T05:20:44.483Z,99047.16
2023-04-27T05:23:11.654Z,99036.22
2023-04-27T05:25:41.847Z,99048.41
2023-04-27T05:28:09.490Z,99069.00
2023-04-27T05:30:36.686Z,99082.53
2023-04-27T05:33:04.325Z,99091.03
2023-04-27T05:35:31.273Z,99098.16
2023-04-27T05:37:58.077Z,99105.72
2023-04-27T05:40:24.869Z,99105.06
2023-04-27T05:42:51.407Z,99092.72
2023-04-27T05:45:18.456Z,99116.50
2023-04-27T05:47:45.248Z,99109.09
2023-04-27T05:50:11.789Z,99134.19
2023-04-27T05:52:39.370Z,99168.09
2023-04-27T05:55:06.208Z,99179.22
2023-04-27T05:57:32.728Z,99208.19
2023-04-27T05:59:59.979Z,99222.94
2023-04-27T06:02:26.670Z,99242.50
2023-04-27T06:04:53.621Z,99263.81
2023-04-27T06:07:20.276Z,99260.84
2023-04-27T06:09:46.707Z,99253.94
2023-04-27T06:12:13.072Z,99246.66
2023-04-27T06:14:39.608Z,99241.25
2023-04-27T06:17:06.092Z,99276.03
2023-04-27T06:19:32.567Z,99320.72
2023-04-27T06:21:59.162Z,99353.38
2023-04-27T06:24:25.982Z,99363.75
2023-04-27T06:26:55.631Z,99363.56
2023-04-27T06:29:22.222Z,99357.97
2023-04-27T06:31:48.844Z,99361.66
2023-04-27T06:34:15.732Z,99361.91
2023-04-27T06:36:42.168Z,99351.63
2023-04-27T06:39:08.669Z,99351.69
2023-04-27T06:41:35.482Z,99321.28
2023-04-27T06:44:01.872Z,99364.63
2023-04-27T06:46:28.933Z,99371.56
2023-04-27T06:48:55.621Z,99387.16
2023-04-27T06:51:22.343Z,99393.91
2023-04-27T06:53:48.817Z,99396.78
2023-04-27T06:56:15.348Z,99396.56
2023-04-27T06:58:41.762Z,99391.81
2023-04-27T07:01:08.175Z,99390.53
2023-04-27T07:03:35.685Z,99385.97
2023-04-27T07:06:02.625Z,99407.09
2023-04-27T07:08:29.172Z,99413.56
2023-04-27T07:10:56.410Z,99424.06
2023-04-27T07:13:22.962Z,99420.16
2023-04-27T07:15:54.063Z,99444.81
2023-04-27T07:18:20.464Z,99436.94
2023-04-27T07:20:46.937Z,99438.16
2023-04-27T07:23:13.288Z,99424.72
2023-04-27T07:25:41.037Z,99428.66
2023-04-27T07:28:07.680Z,99432.56
2023-04-27T07:30:36.538Z,99431.16
2023-04-27T07:33:03.400Z,99431.91
2023-04-27T07:35:29.952Z,99430.53
2023-04-27T07:37:56.864Z,99447.75
2023-04-27T07:40:24.551Z,99445.34
2023-04-27T07:42:51.303Z,99447.72
2023-04-27T07:45:18.232Z,99413.34
2023-04-27T07:47:44.860Z,99458.53
2023-04-27T07:50:11.349Z,99443.84
2023-04-27T07:52:37.722Z,99453.22
2023-04-27T07:55:04.777Z,99447.47
2023-04-27T07:57:31.775Z,99456.94
2023-04-27T07:59:58.320Z,99441.41
2023-04-27T08:02:27.059Z,99437.03
2023-04-27T08:04:53.937Z,99432.19
2023-04-27T08:07:20.916Z,99447.72
2023-04-27T08:09:51.136Z,99445.72
2023-04-27T08:12:17.824Z,99440.06
2023-04-27T08:14:44.618Z,99436.47
2023-04-27T08:17:11.970Z,99446.03
2023-04-27T08:19:38.902Z,99436.81
2023-04-27T08:22:05.390Z,99441.22
2023-04-27T08:24:31.908Z,99443.34
2023-04-27T08:26:58.450Z,99443.84
2023-04-27T08:29:28.478Z,99441.56
2023-04-27T08:31:59.653Z,99432.06
2023-04-27T08:34:26.410Z,99446.19
2023-04-27T08:36:53.966Z,99421.44
2023-04-27T08:39:20.667Z,99417.09
2023-04-27T08:41:47.194Z,99423.59
2023-04-27T08:44:13.771Z,99414.88
2023-04-27T08:46:41.251Z,99412.22
2023-04-27T08:49:08.250Z,99397.75
2023-04-27T08:51:35.479Z,99407.31
2023-04-27T08:54:02.452Z,99398.00
2023-04-27T08:56:29.785Z,99413.13
2023-04-27T08:58:56.980Z,99400.56
2023-04-27T09:01:24.063Z,99404.16
2023-04-27T09:03:57.790Z,99390.59
2023-04-27T09:06:35.662Z,99396.41
2023-04-27T09:09:02.984Z,99389.56
2023-04-27T09:11:34.838Z,99387.91
2023-04-27T09:14:02.740Z,99391.84
2023-04-27T09:16:30.170Z,99398.44
2023-04-27T09:18:57.553Z,99402.59
2023-04-27T09:21:25.788Z,99397.47
2023-04-27T09:23:52.656Z,99391.94
2023-04-27T09:26:23.520Z,99398.84
2023-04-27T09:28:51.487Z,99406.66
2023-04-27T09:31:18.899Z,99386.31
2023-04-27T09:33:46.195Z,99386.88
2023-04-27T09:36:12.835Z,99399.00
2023-04-27T09:38:39.747Z,99376.69
2023-04-27T09:41:08.185Z,99379.44
2023-04-27T09:43:35.165Z,99382.56
2023-04-27T09:46:04.367Z,99372.03
2023-04-27T09:48:35.294Z,99386.63
2023-04-27T09:51:01.915Z,99387.47
2023-04-27T09:53:38.919Z,99408.88
2023-04-27T09:56:11.647Z,99396.88
2023-04-27T09:58:38.003Z,99391.69
2023-04-27T10:01:10.924Z,99392.31
2023-04-27T10:03:40.846Z,99368.00
2023-04-27T10:06:10.817Z,99382.56
2023-04-27T10:08:39.071Z,99382.28
2023-04-27T10:11:16.451Z,99385.66
2023-04-27T10:14:06.099Z,99383.56
2023-04-27T10:16:40.223Z,99369.31
2023-04-27T10:19:09.829Z,99366.72
2023-04-27T10:21:36.896Z,99359.56
2023-04-27T10:24:07.251Z,99350.66
2023-04-27T10:26:35.755Z,99356.72
2023-04-27T10:29:07.725Z,99366.53
2023-04-27T10:31:34.456Z,99367.34
2023-04-27T10:34:11.975Z,99363.56
2023-04-27T10:36:44.350Z,99360.31
2023-04-27T10:39:18.510Z,99368.47
2023-04-27T10:41:51.831Z,99353.97
2023-04-27T10:44:37.479Z,99367.44
2023-04-27T10:47:14.085Z,99360.25
2023-04-27T10:49:40.758Z,99357.59
2023-04-27T10:52:09.329Z,99366.13
2023-04-27T10:54:36.874Z,99368.53
2023-04-27T10:57:07.513Z,99367.63
2023-04-27T10:59:34.904Z,99367.06
2023-04-27T11:02:01.665Z,99355.72
2023-04-27T11:04:38.779Z,99351.94
2023-04-27T11:07:06.027Z,99352.91
2023-04-27T11:09:32.597Z,99352.22
2023-04-27T11:11:59.270Z,99357.09
2023-04-27T11:14:25.751Z,99344.69
2023-04-27T11:16:52.256Z,99337.16
2023-04-27T11:19:18.751Z,99343.66
2023-04-27T11:21:48.777Z,99335.38
2023-04-27T11:24:15.673Z,99336.09
2023-04-27T11:26:42.387Z,99347.56
2023-04-27T11:29:14.477Z,99350.09
2023-04-27T11:31:43.752Z,99340.66
2023-04-27T11:34:19.571Z,99341.69
2023-04-27T11:37:10.518Z,99344.88
2023-04-27T11:39:44.914Z,99345.44
2023-04-27T11:42:18.548Z,99340.06
2023-04-27T11:44:55.652Z,99336.78
2023-04-27T11:47:22.995Z,99342.06
2023-04-27T11:49:50.394Z,99333.69
2023-04-27T11:52:17.085Z,99343.75
2023-04-27T11:54:58.508Z,99345.94
2023-04-27T11:57:27.236Z,99344.63
2023-04-27T11:59:53.919Z,99336.69
2023-04-27T12:02:22.591Z,99339.59
2023-04-27T12:04:52.890Z,99333.38
2023-04-27T12:07:20.744Z,99327.47
2023-04-27T12:09:47.980Z,99324.06
2023-04-27T12:12:14.751Z,99313.78
2023-04-27T12:14:41.930Z,99323.59
2023-04-27T12:17:08.928Z,99318.00
2023-04-27T12:19:37.399Z,99312.47
2023-04-27T12:22:05.556Z,99316.16
2023-04-27T12:24:32.528Z,99315.94
2023-04-27T12:26:59.568Z,99301.97
2023-04-27T12:29:26.186Z,99299.09
2023-04-27T12:31:56.292Z,99306.63
2023-04-27T12:34:23.149Z,99302.78
2023-04-27T12:36:49.768Z,99296.03
2023-04-27T12:39:18.396Z,99287.78
2023-04-27T12:41:45.283Z,99286.06
2023-04-27T12:44:13.118Z,99294.88
2023-04-27T12:46:40.582Z,99277.94
2023-04-27T12:49:07.739Z,99293.38
2023-04-27T12:51:34.807Z,99280.88
2023-04-27T12:54:03.266Z,99283.06
2023-04-27T12:56:30.370Z,99275.19
2023-04-27T12:58:57.277Z,99281.34
2023-04-27T13:01:27.880Z,99279.63
2023-04-27T13:03:56.181Z,99287.91
2023-04-27T13:06:23.152Z,99283.84
2023-04-27T13:08:50.184Z,99269.97
2023-04-27T13:11:17.518Z,99279.25
2023-04-27T13:13:44.938Z,99263.84
2023-04-27T13:16:13.950Z,99265.56
2023-04-27T13:18:41.217Z,99281.84
2023-04-27T13:21:08.079Z,99267.91
2023-04-27T13:23:34.694Z,99263.81
2023-04-27T13:26:01.742Z,99257.88
2023-04-27T13:28:28.302Z,99261.63
2023-04-27T13:30:54.743Z,99259.63
2023-04-27T13:33:23.696Z,99273.97
2023-04-27T13:35:51.335Z,99270.78
2023-04-27T13:38:18.009Z,99267.75
2023-04-27T13:40:44.642Z,99247.78
2023-04-27T13:43:12.320Z,99260.03
2023-04-27T13:45:39.823Z,99264.22
2023-04-27T13:48:06.604Z,99264.94
2023-04-27T13:50:33.306Z,99256.28
2023-04-27T13:53:01.918Z,99262.75
2023-04-27T13:55:28.654Z,99255.19
2023-04-27T13:57:55.113Z,99259.44
2023-04-27T14:00:21.732Z,99260.06
2023-04-27T14:02:48.325Z,99258.63
2023-04-27T14:05:14.979Z,99264.19
2023-04-27T14:07:41.504Z,99259.25
2023-04-27T14:10:08.942Z,99259.09
2023-04-27T14:12:36.032Z,99257.81
2023-04-27T14:15:03.516Z,99262.75
2023-04-27T14:17:30.062Z,99263.09
2023-04-27T14:19:56.632Z,99264.59
2023-04-27T14:22:23.271Z,99255.91
2023-04-27T14:24:49.826Z,99266.31
2023-04-27T14:27:17.235Z,99258.72
2023-04-27T14:29:43.692Z,99252.72
2023-04-27T14:32:10.254Z,99255.44
2023-04-27T14:34:36.748Z,99256.47
2023-04-27T14:37:03.251Z,99256.50
2023-04-27T14:39:29.802Z,99248.84
2023-04-27T14:41:56.299Z,99250.44
2023-04-27T14:44:22.810Z,99249.00
2023-04-27T14:46:49.369Z,99250.03
2023-04-27T14:49:16.197Z,99246.91
2023-04-27T14:51:43.673Z,99259.81
2023-04-27T14:54:10.416Z,99249.38
2023-04-27T14:56:36.906Z,99248.88
2023-04-27T14:59:03.322Z,99248.88
2023-04-27T15:01:30.457Z,99244.84
2023-04-27T15:03:58.285Z,99248.53
2023-04-27T15:06:28.261Z,99244.34
2023-04-27T15:08:55.628Z,99250.22
2023-04-27T15:11:22.172Z,99246.19
2023-04-27T15:13:51.850Z,99232.19
2023-04-27T15:16:20.540Z,99228.22
2023-04-27T15:18:47.290Z,99238.06
2023-04-27T15:21:13.759Z,99241.00
2023-04-27T15:23:40.214Z,99238.84
2023-04-27T15:26:06.762Z,99235.72
2023-04-27T15:28:34.423Z,99233.53
2023-04-27T15:31:01.367Z,99238.75
2023-04-27T15:33:28.098Z,99242.88
2023-04-27T15:35:55.211Z,99233.72
2023-04-27T15:38:21.738Z,99236.81
2023-04-27T15:40:48.369Z,99236.03
2023-04-27T15:43:15.235Z,99227.38
2023-04-27T15:45:42.010Z,99228.66
2023-04-27T15:48:08.729Z,99228.06
2023-04-27T15:50:35.175Z,99220.56
2023-04-27T15:53:01.734Z,99222.47
2023-04-27T15:55:31.246Z,99220.59
2023-04-27T15:57:57.875Z,99222.56
2023-04-27T16:00:24.942Z,99210.47
2023-04-27T16:02:51.817Z,99213.69
2023-04-27T16:05:18.385Z,99214.53
2023-04-27T16:07:45.319Z,99222.78
2023-04-27T16:10:12.211Z,99224.31
2023-04-27T16:12:39.157Z,99221.34
2023-04-27T16:15:07.954Z,99225.88
2023-04-27T16:17:36.270Z,99224.78
2023-04-27T16:20:06.801Z,99221.84
2023-04-27T16:22:37.379Z,99217.03
2023-04-27T16:25:06.654Z,99219.31
2023-04-27T16:27:33.769Z,99212.31
2023-04-27T16:30:00.206Z,99208.25
2023-04-27T16:32:27.013Z,99213.63
2023-04-27T16:34:53.809Z,99206.28
2023-04-27T16:37:20.296Z,99205.22
2023-04-27T16:39:46.898Z,99206.13
2023-04-27T16:42:18.845Z,99209.97
2023-04-27T16:44:45.811Z,99205.31
2023-04-27T16:47:12.448Z,99206.13
2023-04-27T16:49:39.789Z,99213.34
2023-04-27T16:52:06.267Z,99211.63
2023-04-27T16:54:32.785Z,99212.47
2023-04-27T16:56:59.221Z,99209.50
2023-04-27T16:59:25.684Z,99213.44
2023-04-27T17:01:52.235Z,99213.75
2023-04-27T17:04:18.895Z,99216.47
2023-04-27T17:06:47.950Z,99220.94
2023-04-27T17:09:15.235Z,99219.28
2023-04-27T17:11:42.044Z,99219.97
2023-04-27T17:14:08.451Z,99218.16
2023-04-27T17:16:35.031Z,99222.16
2023-04-27T17:19:01.674Z,99218.19
2023-04-27T17:21:28.150Z,99217.19
2023-04-27T17:23:54.806Z,99215.28
2023-04-27T17:26:21.849Z,99218.53
2023-04-27T17:28:50.553Z,99216.66
2023-04-27T17:31:17.960Z,99214.88
2023-04-27T17:33:45.007Z,99210.75
2023-04-27T17:36:11.983Z,99208.19
2023-04-27T17:38:38.430Z,99210.09
2023-04-27T17:41:04.845Z,99214.81
2023-04-27T17:43:31.368Z,99222.13
2023-04-27T17:45:57.811Z,99221.16
2023-04-27T17:48:24.629Z,99223.22
2023-04-27T17:50:51.183Z,99216.00
2023-04-27T17:53:17.619Z,99213.81
2023-04-27T17:55:45.835Z,99212.31
2023-04-27T17:58:12.317Z,99209.09
2023-04-27T18:00:39.194Z,99207.53
2023-04-27T18:03:06.161Z,99206.75
2023-04-27T18:05:32.974Z,99207.06
2023-04-27T18:07:59.593Z,99206.06
2023-04-27T18:10:26.023Z,99208.28
2023-04-27T18:12:52.698Z,99217.78
2023-04-27T18:15:19.498Z,99204.69
2023-04-27T18:17:46.193Z,99212.31
2023-04-27T18:20:12.760Z,99222.09
2023-04-27T18:22:40.282Z,99218.91
2023-04-27T18:25:07.266Z,99215.97
2023-04-27T18:27:36.701Z,99225.91
2023-04-27T18:30:04.696Z,99217.53
2023-04-27T18:32:31.454Z,99217.53
2023-04-27T18:34:58.125Z,99224.50
2023-04-27T18:37:24.716Z,99227.56
2023-04-27T18:39:52.855Z,99226.84
2023-04-27T18:42:20.278Z,99218.50
2023-04-27T18:44:47.359Z,99225.91
2023-04-27T18:47:16.789Z,99225.59
2023-04-27T18:49:43.263Z,99221.84
2023-04-27T18:52:11.564Z,99221.16
2023-04-27T18:54:38.461Z,99217.25
2023-04-27T18:57:05.066Z,99224.06
2023-04-27T18:59:31.478Z,99222.66
2023-04-27T19:01:58.620Z,99221.53
2023-04-27T19:04:26.625Z,99229.47
2023-04-27T19:06:53.493Z,99237.25
2023-04-27T19:09:20.278Z,99231.13
2023-04-27T19:11:49.494Z,99232.06
2023-04-27T19:14:20.020Z,99229.44
2023-04-27T19:16:46.660Z,99228.84
2023-04-27T19:19:13.424Z,99226.88
2023-04-27T19:21:42.081Z,99228.56
2023-04-27T19:24:09.180Z,99225.19
2023-04-27T19:26:36.322Z,99227.13
2023-04-27T19:29:03.562Z,99222.38
2023-04-27T19:31:30.164Z,99170.97
2023-04-27T19:36:30.053Z,99226.66
2023-04-27T19:38:56.482Z,99218.56
2023-04-27T19:41:23.648Z,99218.94
2023-04-27T19:43:50.358Z,99208.19
2023-04-27T19:46:16.920Z,99215.16
2023-04-27T19:48:43.612Z,99212.19
2023-04-27T19:51:10.590Z,99212.09
2023-04-27T19:53:37.631Z,99215.94
2023-04-27T19:56:07.319Z,99205.91
2023-04-27T19:58:36.090Z,99204.47
2023-04-27T20:01:05.304Z,99206.16
2023-04-27T20:03:32.130Z,99205.00
2023-04-27T20:05:59.259Z,99204.78
2023-04-27T20:08:25.927Z,99200.75
2023-04-27T20:10:54.276Z,99213.00
2023-04-27T20:13:20.772Z,99206.47
2023-04-27T20:15:47.324Z,99213.25
2023-04-27T20:18:13.906Z,99208.22
2023-04-27T20:20:42.110Z,99207.97
2023-04-27T20:23:09.339Z,99205.44
2023-04-27T20:25:36.133Z,99207.13
2023-04-27T20:28:02.555Z,99207.00
2023-04-27T20:30:29.327Z,99202.69
2023-04-27T20:32:56.663Z,99154.69
2023-04-27T20:35:24.215Z,99199.59
2023-04-27T20:37:52.101Z,99197.06
2023-04-27T20:40:18.924Z,99207.03
2023-04-27T20:42:46.022Z,99205.00
2023-04-27T20:45:12.811Z,99207.03
2023-04-27T20:47:39.625Z,99198.81
2023-04-27T20:50:07.921Z,99198.31
2023-04-27T20:52:35.005Z,99197.91
2023-04-27T20:55:02.246Z,99200.94
2023-04-27T20:57:28.812Z,99197.00
2023-04-27T20:59:55.957Z,99201.31
2023-04-27T21:02:22.530Z,99197.56
2023-04-27T21:04:48.981Z,99198.66
2023-04-27T21:07:15.702Z,99200.84
2023-04-27T21:09:42.190Z,99194.72
2023-04-27T21:12:09.153Z,99194.47
2023-04-27T21:14:36.036Z,99195.00
2023-04-27T21:17:02.713Z,99189.72
2023-04-27T21:19:29.398Z,99180.25
2023-04-27T21:21:56.280Z,99178.81
2023-04-27T21:24:22.949Z,99180.50
2023-04-27T21:26:50.161Z,99183.84
2023-04-27T21:29:16.600Z,99178.22
2023-04-27T21:31:43.047Z,99126.91
2023-04-27T21:34:09.477Z,99161.88
2023-04-27T21:36:37.436Z,99149.13
2023-04-27T21:39:04.007Z,99151.94
2023-04-27T21:41:35.210Z,99141.56
2023-04-27T21:44:02.125Z,99134.00
2023-04-27T21:46:28.754Z,99123.69
2023-04-27T21:48:55.621Z,99118.81
2023-04-27T21:51:22.112Z,99111.50
2023-04-27T21:53:48.621Z,99120.34
2023-04-27T21:56:15.083Z,99119.88
2023-04-27T21:58:41.746Z,99111.50
2023-04-27T22:01:08.184Z,99112.59
2023-04-27T22:03:34.838Z,99110.31
2023-04-27T22:06:01.372Z,99112.09
2023-04-27T22:08:32.186Z,99099.88
2023-04-27T22:10:58.690Z,99100.38
2023-04-27T22:13:27.581Z,99086.38
2023-04-27T22:15:54.175Z,99088.78
2023-04-27T22:18:20.805Z,99085.16
2023-04-27T22:20:47.356Z,99077.03
2023-04-27T22:23:13.880Z,99073.69
2023-04-27T22:25:42.828Z,99080.63
2023-04-27T22:28:09.910Z,99082.28
2023-04-27T22:30:36.485Z,99083.13
2023-04-27T22:33:03.394Z,99089.94
2023-04-27T22:35:34.155Z,99087.56
2023-04-27T22:38:01.210Z,99099.88
2023-04-27T22:40:28.017Z,99090.56
2023-04-27T22:42:55.200Z,99093.34
2023-04-27T22:45:22.809Z,99089.94
2023-04-27T22:47:49.741Z,99096.19
2023-04-27T22:50:16.686Z,99085.31
2023-04-27T22:52:43.225Z,99088.53
2023-04-27T22:55:13.048Z,99081.66
2023-04-27T22:57:40.477Z,99080.63
2023-04-27T23:00:11.814Z,99077.25
2023-04-27T23:02:43.488Z,99074.53
2023-04-27T23:05:11.138Z,99075.59
2023-04-27T23:07:37.702Z,99066.47
2023-04-27T23:10:05.077Z,99066.72
2023-04-27T23:12:31.971Z,99064.44
2023-04-27T23:14:59.051Z,99065.78
2023-04-27T23:17:31.908Z,99060.03
2023-04-27T23:19:59.366Z,99055.09
2023-04-27T23:22:26.484Z,99057.88
2023-04-27T23:24:54.274Z,99050.19
2023-04-27T23:27:21.602Z,99041.47
2023-04-27T23:29:49.563Z,99041.69
2023-04-27T23:32:16.204Z,99037.88
2023-04-27T23:34:42.669Z,99039.19
2023-04-27T23:37:09.688Z,99039.47
2023-04-27T23:39:36.090Z,99030.84
2023-04-27T23:42:03.473Z,99028.44
2023-04-27T23:44:30.463Z,99025.50
2023-04-27T23:46:57.041Z,99006.69
2023-04-27T23:49:23.572Z,99008.38
2023-04-27T23:51:50.181Z,99000.47
2023-04-27T23:54:16.763Z,98996.84
2023-04-27T23:56:55.095Z,98985.84
2023-04-27T23:59:24.567Z,98990.03
